Airfield :
LOGIN :

Register | Disclaimer

   EN    FR    IT 

 










Legend :    VFR   Marginal VFR   IFR   Intensive IFR   Very Intensive IFR
Visi :
Ceiling :
>= 8 km
>= 3000ft
5 to 8 km
1000 to 3000 ft
1500m to 5 km
500 to 1000 ft
800 to 1500m
200 to 500 ft
< 800m
< 200 ft
Symbols :   Thunderstorms  Fog  Heavy snow  Heavy precipitations  Wind > 20 kt
SIGMETs :     Misc.  Thunderstorms  Icing  Turbulence  Mountain Waves  Volcanic Ashes






- Airport Elevation : 49 ft
- IATA code : AOI


LIPY - Ancona Falconara

CURRENT METAR :
  • 191050Z AUTO 21008KT 170V250 9999 SCT059/// BKN140/// 28/14 Q1011

EXPIRED METARs :
  • 191020Z AUTO 22009KT 180V250 9999 SCT160/// 29/14 Q1011
  • 190950Z AUTO 21009KT 190V250 9999 FEW052/// 28/14 Q1011
  • 190920Z AUTO 22009KT 9999 NCD 28/14 Q1012
  • 190850Z AUTO 20008KT 170V230 9999 NCD 27/15 Q1012
  • 190820Z AUTO 21007KT 9999 NCD 26/15 Q1012

TAF TAF LIPY
Valid from the 19 at 06:00 until the 20 at 06:00 UTC


190500Z 1906/2006 VRB05KT 9999 FEW040
TEMPO 1915/1924 4000 TSRA



MET'MAP, your aeronautical weather chart ! - Copyright ORBIFLY December 2007 - Disclaimer

ORBIFLY MET'MAP TEAM :

Programming & Development : Alexandra Zaïnal
Concept & original design : Baudouin d'Aumeries
Assistance for programming : Marc-Olivier Méhu
Technical & hardware support : Manuel Goepfert

Contact : metmap@orbifly.com




SOURCES & CREDITS :

   NOAA